sensor_id;sensor_type;location;lat;lon;timestamp;P1;durP1;ratioP1;P2;durP2;ratioP2
21899;SDS011;11114;50.658;12.704;2022-08-01T00:00:05;16.20;;;14.90;;
21899;SDS011;11114;50.658;12.704;2022-08-01T00:02:35;16.00;;;14.85;;
21899;SDS011;11114;50.658;12.704;2022-08-01T00:05:03;16.20;;;15.02;;
21899;SDS011;11114;50.658;12.704;2022-08-01T00:07:32;16.10;;;14.80;;
21899;SDS011;11114;50.658;12.704;2022-08-01T00:10:00;16.27;;;14.85;;
21899;SDS011;11114;50.658;12.704;2022-08-01T00:12:27;15.82;;;14.73;;
21899;SDS011;11114;50.658;12.704;2022-08-01T00:14:54;15.77;;;14.57;;
21899;SDS011;11114;50.658;12.704;2022-08-01T00:17:21;15.90;;;14.70;;
21899;SDS011;11114;50.658;12.704;2022-08-01T00:19:47;15.75;;;14.60;;
21899;SDS011;11114;50.658;12.704;2022-08-01T00:22:14;16.23;;;14.90;;
21899;SDS011;11114;50.658;12.704;2022-08-01T00:24:41;16.10;;;14.90;;
21899;SDS011;11114;50.658;12.704;2022-08-01T00:27:08;16.45;;;15.15;;
21899;SDS011;11114;50.658;12.704;2022-08-01T00:29:34;16.40;;;15.07;;
21899;SDS011;11114;50.658;12.704;2022-08-01T00:32:21;16.60;;;15.20;;
21899;SDS011;11114;50.658;12.704;2022-08-01T00:34:48;16.30;;;15.20;;
21899;SDS011;11114;50.658;12.704;2022-08-01T00:37:16;16.45;;;15.00;;
21899;SDS011;11114;50.658;12.704;2022-08-01T00:39:43;15.80;;;14.70;;
21899;SDS011;11114;50.658;12.704;2022-08-01T00:42:10;15.80;;;14.57;;
21899;SDS011;11114;50.658;12.704;2022-08-01T00:44:38;15.63;;;14.50;;
21899;SDS011;11114;50.658;12.704;2022-08-01T00:47:06;15.73;;;14.50;;
21899;SDS011;11114;50.658;12.704;2022-08-01T00:49:33;16.02;;;14.73;;
21899;SDS011;11114;50.658;12.704;2022-08-01T00:52:01;15.85;;;14.73;;
21899;SDS011;11114;50.658;12.704;2022-08-01T00:54:29;16.27;;;15.07;;
21899;SDS011;11114;50.658;12.704;2022-08-01T00:56:57;16.42;;;14.93;;
21899;SDS011;11114;50.658;12.704;2022-08-01T00:59:24;15.88;;;14.77;;
21899;SDS011;11114;50.658;12.704;2022-08-01T01:01:52;16.30;;;15.13;;
21899;SDS011;11114;50.658;12.704;2022-08-01T01:04:20;15.52;;;14.38;;
21899;SDS011;11114;50.658;12.704;2022-08-01T01:10:17;15.52;;;14.43;;
21899;SDS011;11114;50.658;12.704;2022-08-01T01:12:59;15.70;;;14.50;;
21899;SDS011;11114;50.658;12.704;2022-08-01T01:15:36;15.40;;;14.40;;
21899;SDS011;11114;50.658;12.704;2022-08-01T01:23:52;15.63;;;14.43;;
21899;SDS011;11114;50.658;12.704;2022-08-01T01:32:22;15.93;;;14.60;;
21899;SDS011;11114;50.658;12.704;2022-08-01T01:34:56;15.70;;;14.60;;
21899;SDS011;11114;50.658;12.704;2022-08-01T01:37:25;15.63;;;14.50;;
21899;SDS011;11114;50.658;12.704;2022-08-01T01:39:56;15.55;;;14.45;;
21899;SDS011;11114;50.658;12.704;2022-08-01T01:42:24;15.70;;;14.60;;
21899;SDS011;11114;50.658;12.704;2022-08-01T01:44:51;15.50;;;14.40;;
21899;SDS011;11114;50.658;12.704;2022-08-01T01:47:21;15.43;;;14.13;;
21899;SDS011;11114;50.658;12.704;2022-08-01T01:49:49;15.68;;;14.48;;
21899;SDS011;11114;50.658;12.704;2022-08-01T01:52:20;15.63;;;14.43;;
21899;SDS011;11114;50.658;12.704;2022-08-01T01:54:48;15.68;;;14.48;;
21899;SDS011;11114;50.658;12.704;2022-08-01T01:57:18;15.80;;;14.60;;
21899;SDS011;11114;50.658;12.704;2022-08-01T01:59:46;15.20;;;14.20;;
21899;SDS011;11114;50.658;12.704;2022-08-01T02:02:16;15.95;;;14.68;;
21899;SDS011;11114;50.658;12.704;2022-08-01T02:04:45;15.48;;;14.40;;
21899;SDS011;11114;50.658;12.704;2022-08-01T02:07:17;15.70;;;14.52;;
21899;SDS011;11114;50.658;12.704;2022-08-01T02:09:49;15.45;;;14.35;;
21899;SDS011;11114;50.658;12.704;2022-08-01T02:12:17;15.77;;;14.60;;
21899;SDS011;11114;50.658;12.704;2022-08-01T02:14:48;16.08;;;14.77;;
21899;SDS011;11114;50.658;12.704;2022-08-01T02:17:19;15.85;;;14.75;;
21899;SDS011;11114;50.658;12.704;2022-08-01T02:19:47;16.25;;;14.80;;
21899;SDS011;11114;50.658;12.704;2022-08-01T02:22:16;16.17;;;14.77;;
21899;SDS011;11114;50.658;12.704;2022-08-01T02:28:09;15.82;;;14.73;;
21899;SDS011;11114;50.658;12.704;2022-08-01T02:30:41;16.55;;;15.02;;
21899;SDS011;11114;50.658;12.704;2022-08-01T02:33:15;16.52;;;15.15;;
21899;SDS011;11114;50.658;12.704;2022-08-01T02:35:46;16.42;;;15.15;;
21899;SDS011;11114;50.658;12.704;2022-08-01T02:38:37;16.42;;;15.10;;
21899;SDS011;11114;50.658;12.704;2022-08-01T02:41:09;16.75;;;15.23;;
21899;SDS011;11114;50.658;12.704;2022-08-01T02:43:40;16.48;;;14.98;;
21899;SDS011;11114;50.658;12.704;2022-08-01T02:46:23;16.17;;;15.07;;
21899;SDS011;11114;50.658;12.704;2022-08-01T02:48:54;15.77;;;14.68;;
21899;SDS011;11114;50.658;12.704;2022-08-01T02:51:23;16.73;;;15.40;;
21899;SDS011;11114;50.658;12.704;2022-08-01T02:53:52;16.42;;;15.27;;
21899;SDS011;11114;50.658;12.704;2022-08-01T02:56:21;16.92;;;15.43;;
21899;SDS011;11114;50.658;12.704;2022-08-01T02:58:49;17.10;;;15.70;;
21899;SDS011;11114;50.658;12.704;2022-08-01T03:01:18;14.48;;;13.27;;
21899;SDS011;11114;50.658;12.704;2022-08-01T03:03:47;14.30;;;13.30;;
21899;SDS011;11114;50.658;12.704;2022-08-01T03:06:14;17.23;;;15.95;;
21899;SDS011;11114;50.658;12.704;2022-08-01T03:08:43;17.52;;;16.33;;
21899;SDS011;11114;50.658;12.704;2022-08-01T03:11:13;17.23;;;16.02;;
21899;SDS011;11114;50.658;12.704;2022-08-01T03:13:41;16.80;;;15.60;;
21899;SDS011;11114;50.658;12.704;2022-08-01T03:16:11;17.40;;;16.10;;
21899;SDS011;11114;50.658;12.704;2022-08-01T03:18:39;17.50;;;16.20;;
21899;SDS011;11114;50.658;12.704;2022-08-01T03:21:08;17.73;;;16.38;;
21899;SDS011;11114;50.658;12.704;2022-08-01T03:23:36;17.60;;;16.17;;
21899;SDS011;11114;50.658;12.704;2022-08-01T03:26:04;17.15;;;15.82;;
21899;SDS011;11114;50.658;12.704;2022-08-01T03:28:32;17.45;;;16.15;;
21899;SDS011;11114;50.658;12.704;2022-08-01T03:30:59;17.80;;;16.50;;
21899;SDS011;11114;50.658;12.704;2022-08-01T03:33:28;16.77;;;15.57;;
21899;SDS011;11114;50.658;12.704;2022-08-01T03:35:55;17.13;;;15.93;;
21899;SDS011;11114;50.658;12.704;2022-08-01T03:40:59;17.10;;;15.90;;
21899;SDS011;11114;50.658;12.704;2022-08-01T03:43:41;18.03;;;16.63;;
21899;SDS011;11114;50.658;12.704;2022-08-01T03:46:18;17.75;;;16.45;;
21899;SDS011;11114;50.658;12.704;2022-08-01T03:48:50;18.08;;;16.70;;
21899;SDS011;11114;50.658;12.704;2022-08-01T03:51:21;17.50;;;16.20;;
21899;SDS011;11114;50.658;12.704;2022-08-01T03:53:49;18.58;;;17.23;;
21899;SDS011;11114;50.658;12.704;2022-08-01T03:56:19;18.10;;;16.80;;
21899;SDS011;11114;50.658;12.704;2022-08-01T03:58:47;19.17;;;17.55;;
21899;SDS011;11114;50.658;12.704;2022-08-01T04:01:16;18.38;;;16.98;;
21899;SDS011;11114;50.658;12.704;2022-08-01T04:03:43;18.08;;;16.77;;
21899;SDS011;11114;50.658;12.704;2022-08-01T04:06:11;17.65;;;16.35;;
21899;SDS011;11114;50.658;12.704;2022-08-01T04:08:40;19.48;;;17.88;;
21899;SDS011;11114;50.658;12.704;2022-08-01T04:11:07;18.02;;;16.40;;
21899;SDS011;11114;50.658;12.704;2022-08-01T04:13:35;16.70;;;15.50;;
21899;SDS011;11114;50.658;12.704;2022-08-01T04:16:04;18.58;;;17.17;;
21899;SDS011;11114;50.658;12.704;2022-08-01T04:18:31;18.45;;;16.95;;
21899;SDS011;11114;50.658;12.704;2022-08-01T04:20:58;19.00;;;17.50;;
21899;SDS011;11114;50.658;12.704;2022-08-01T04:23:25;17.98;;;16.58;;
21899;SDS011;11114;50.658;12.704;2022-08-01T04:25:54;18.10;;;16.80;;
21899;SDS011;11114;50.658;12.704;2022-08-01T04:28:22;18.02;;;16.50;;
21899;SDS011;11114;50.658;12.704;2022-08-01T04:30:51;16.75;;;15.52;;
21899;SDS011;11114;50.658;12.704;2022-08-01T04:33:27;16.40;;;15.20;;
21899;SDS011;11114;50.658;12.704;2022-08-01T04:35:56;18.33;;;16.63;;
21899;SDS011;11114;50.658;12.704;2022-08-01T04:38:29;17.30;;;16.02;;
21899;SDS011;11114;50.658;12.704;2022-08-01T04:40:59;18.38;;;16.98;;
21899;SDS011;11114;50.658;12.704;2022-08-01T04:43:35;18.02;;;16.63;;
21899;SDS011;11114;50.658;12.704;2022-08-01T04:46:06;18.25;;;16.83;;
21899;SDS011;11114;50.658;12.704;2022-08-01T04:48:34;18.15;;;16.65;;
21899;SDS011;11114;50.658;12.704;2022-08-01T04:51:03;17.58;;;16.17;;
21899;SDS011;11114;50.658;12.704;2022-08-01T04:53:31;17.40;;;16.10;;
21899;SDS011;11114;50.658;12.704;2022-08-01T04:55:58;17.40;;;16.10;;
21899;SDS011;11114;50.658;12.704;2022-08-01T04:58:25;17.73;;;16.42;;
21899;SDS011;11114;50.658;12.704;2022-08-01T05:00:52;25.17;;;22.70;;
21899;SDS011;11114;50.658;12.704;2022-08-01T05:03:19;17.48;;;16.17;;
21899;SDS011;11114;50.658;12.704;2022-08-01T05:05:45;16.50;;;15.27;;
21899;SDS011;11114;50.658;12.704;2022-08-01T05:08:12;18.65;;;17.25;;
21899;SDS011;11114;50.658;12.704;2022-08-01T05:10:39;16.52;;;15.15;;
21899;SDS011;11114;50.658;12.704;2022-08-01T05:13:06;15.68;;;14.57;;
21899;SDS011;11114;50.658;12.704;2022-08-01T05:15:34;16.10;;;14.85;;
21899;SDS011;11114;50.658;12.704;2022-08-01T05:18:03;15.70;;;14.50;;
21899;SDS011;11114;50.658;12.704;2022-08-01T05:20:30;15.07;;;14.00;;
21899;SDS011;11114;50.658;12.704;2022-08-01T05:22:56;22.55;;;20.55;;
21899;SDS011;11114;50.658;12.704;2022-08-01T05:25:24;16.65;;;15.20;;
21899;SDS011;11114;50.658;12.704;2022-08-01T05:28:11;14.63;;;13.45;;
21899;SDS011;11114;50.658;12.704;2022-08-01T05:30:44;14.70;;;13.70;;
21899;SDS011;11114;50.658;12.704;2022-08-01T05:33:11;14.63;;;13.55;;
21899;SDS011;11114;50.658;12.704;2022-08-01T05:35:38;15.93;;;14.73;;
21899;SDS011;11114;50.658;12.704;2022-08-01T05:38:14;14.88;;;13.77;;
21899;SDS011;11114;50.658;12.704;2022-08-01T05:40:42;15.10;;;13.95;;
21899;SDS011;11114;50.658;12.704;2022-08-01T05:43:08;15.75;;;14.65;;
21899;SDS011;11114;50.658;12.704;2022-08-01T05:45:35;15.57;;;14.38;;
21899;SDS011;11114;50.658;12.704;2022-08-01T05:48:02;15.55;;;14.32;;
21899;SDS011;11114;50.658;12.704;2022-08-01T05:50:29;15.27;;;14.25;;
21899;SDS011;11114;50.658;12.704;2022-08-01T05:52:57;15.95;;;14.73;;
21899;SDS011;11114;50.658;12.704;2022-08-01T05:55:24;15.70;;;14.60;;
21899;SDS011;11114;50.658;12.704;2022-08-01T05:57:50;15.70;;;14.60;;
21899;SDS011;11114;50.658;12.704;2022-08-01T06:00:17;15.40;;;14.40;;
21899;SDS011;11114;50.658;12.704;2022-08-01T06:02:44;15.43;;;14.32;;
21899;SDS011;11114;50.658;12.704;2022-08-01T06:05:11;15.40;;;14.20;;
21899;SDS011;11114;50.658;12.704;2022-08-01T06:07:39;14.70;;;13.70;;
21899;SDS011;11114;50.658;12.704;2022-08-01T06:10:06;15.85;;;14.57;;
21899;SDS011;11114;50.658;12.704;2022-08-01T06:12:35;16.02;;;14.57;;
21899;SDS011;11114;50.658;12.704;2022-08-01T06:15:03;16.58;;;15.35;;
21899;SDS011;11114;50.658;12.704;2022-08-01T06:17:30;14.65;;;13.65;;
21899;SDS011;11114;50.658;12.704;2022-08-01T06:19:57;15.52;;;14.32;;
21899;SDS011;11114;50.658;12.704;2022-08-01T06:22:24;14.90;;;13.52;;
21899;SDS011;11114;50.658;12.704;2022-08-01T06:24:51;14.90;;;13.75;;
21899;SDS011;11114;50.658;12.704;2022-08-01T06:27:18;14.95;;;13.75;;
21899;SDS011;11114;50.658;12.704;2022-08-01T06:29:47;14.02;;;12.85;;
21899;SDS011;11114;50.658;12.704;2022-08-01T06:32:19;13.77;;;12.80;;
21899;SDS011;11114;50.658;12.704;2022-08-01T06:34:53;14.40;;;13.07;;
21899;SDS011;11114;50.658;12.704;2022-08-01T06:37:21;14.32;;;13.23;;
21899;SDS011;11114;50.658;12.704;2022-08-01T06:39:49;18.23;;;16.50;;
21899;SDS011;11114;50.658;12.704;2022-08-01T06:42:16;17.73;;;16.20;;
21899;SDS011;11114;50.658;12.704;2022-08-01T06:44:44;16.50;;;15.30;;
21899;SDS011;11114;50.658;12.704;2022-08-01T06:47:11;16.88;;;15.68;;
21899;SDS011;11114;50.658;12.704;2022-08-01T06:49:38;18.27;;;16.88;;
21899;SDS011;11114;50.658;12.704;2022-08-01T06:52:04;17.55;;;16.25;;
21899;SDS011;11114;50.658;12.704;2022-08-01T06:54:32;17.90;;;16.60;;
21899;SDS011;11114;50.658;12.704;2022-08-01T06:56:59;17.42;;;16.23;;
21899;SDS011;11114;50.658;12.704;2022-08-01T06:59:25;18.60;;;16.80;;
21899;SDS011;11114;50.658;12.704;2022-08-01T07:01:52;18.35;;;16.90;;
21899;SDS011;11114;50.658;12.704;2022-08-01T07:04:19;17.95;;;16.65;;
21899;SDS011;11114;50.658;12.704;2022-08-01T07:06:49;16.67;;;15.57;;
21899;SDS011;11114;50.658;12.704;2022-08-01T07:09:17;16.83;;;15.63;;
21899;SDS011;11114;50.658;12.704;2022-08-01T07:11:44;17.08;;;15.88;;
21899;SDS011;11114;50.658;12.704;2022-08-01T07:14:10;17.00;;;15.80;;
21899;SDS011;11114;50.658;12.704;2022-08-01T07:16:40;17.90;;;16.50;;
21899;SDS011;11114;50.658;12.704;2022-08-01T07:19:07;17.38;;;16.10;;
21899;SDS011;11114;50.658;12.704;2022-08-01T07:21:34;17.80;;;16.50;;
21899;SDS011;11114;50.658;12.704;2022-08-01T07:24:07;16.33;;;15.23;;
21899;SDS011;11114;50.658;12.704;2022-08-01T07:26:43;16.92;;;15.73;;
21899;SDS011;11114;50.658;12.704;2022-08-01T07:29:25;17.20;;;16.00;;
21899;SDS011;11114;50.658;12.704;2022-08-01T07:31:53;17.15;;;15.85;;
21899;SDS011;11114;50.658;12.704;2022-08-01T07:34:21;16.50;;;15.30;;
21899;SDS011;11114;50.658;12.704;2022-08-01T07:36:49;17.75;;;16.45;;
21899;SDS011;11114;50.658;12.704;2022-08-01T07:39:17;17.27;;;15.88;;
21899;SDS011;11114;50.658;12.704;2022-08-01T07:41:44;16.30;;;15.20;;
21899;SDS011;11114;50.658;12.704;2022-08-01T07:44:31;16.20;;;15.00;;
21899;SDS011;11114;50.658;12.704;2022-08-01T07:46:58;22.95;;;15.55;;
21899;SDS011;11114;50.658;12.704;2022-08-01T07:49:25;17.58;;;16.10;;
21899;SDS011;11114;50.658;12.704;2022-08-01T07:51:52;17.45;;;16.25;;
21899;SDS011;11114;50.658;12.704;2022-08-01T07:54:33;16.83;;;15.63;;
21899;SDS011;11114;50.658;12.704;2022-08-01T07:57:01;15.80;;;14.80;;
21899;SDS011;11114;50.658;12.704;2022-08-01T07:59:30;16.70;;;15.38;;
21899;SDS011;11114;50.658;12.704;2022-08-01T08:01:57;16.63;;;15.27;;
21899;SDS011;11114;50.658;12.704;2022-08-01T08:04:24;15.63;;;14.52;;
21899;SDS011;11114;50.658;12.704;2022-08-01T08:06:51;16.55;;;15.45;;
21899;SDS011;11114;50.658;12.704;2022-08-01T08:09:20;16.55;;;15.45;;
21899;SDS011;11114;50.658;12.704;2022-08-01T08:11:47;16.05;;;14.68;;
21899;SDS011;11114;50.658;12.704;2022-08-01T08:14:20;15.98;;;14.77;;
21899;SDS011;11114;50.658;12.704;2022-08-01T08:16:57;16.33;;;15.13;;
21899;SDS011;11114;50.658;12.704;2022-08-01T08:19:27;17.30;;;15.93;;
21899;SDS011;11114;50.658;12.704;2022-08-01T08:22:04;20.02;;;18.27;;
21899;SDS011;11114;50.658;12.704;2022-08-01T08:24:32;18.40;;;16.80;;
21899;SDS011;11114;50.658;12.704;2022-08-01T08:27:00;17.80;;;16.40;;
21899;SDS011;11114;50.658;12.704;2022-08-01T08:29:28;18.42;;;16.92;;
21899;SDS011;11114;50.658;12.704;2022-08-01T08:31:58;16.60;;;15.40;;
21899;SDS011;11114;50.658;12.704;2022-08-01T08:34:26;19.48;;;18.02;;
21899;SDS011;11114;50.658;12.704;2022-08-01T08:36:57;17.13;;;15.80;;
21899;SDS011;11114;50.658;12.704;2022-08-01T08:39:25;16.30;;;15.20;;
21899;SDS011;11114;50.658;12.704;2022-08-01T08:41:53;16.33;;;15.23;;
21899;SDS011;11114;50.658;12.704;2022-08-01T08:44:19;15.85;;;14.75;;
21899;SDS011;11114;50.658;12.704;2022-08-01T08:46:49;16.90;;;15.70;;
21899;SDS011;11114;50.658;12.704;2022-08-01T08:49:19;17.20;;;15.85;;
21899;SDS011;11114;50.658;12.704;2022-08-01T08:51:49;16.50;;;15.27;;
21899;SDS011;11114;50.658;12.704;2022-08-01T08:54:18;16.38;;;15.25;;
21899;SDS011;11114;50.658;12.704;2022-08-01T08:56:57;16.60;;;15.30;;
21899;SDS011;11114;50.658;12.704;2022-08-01T08:59:25;14.93;;;13.93;;
21899;SDS011;11114;50.658;12.704;2022-08-01T09:01:52;15.68;;;14.60;;
21899;SDS011;11114;50.658;12.704;2022-08-01T09:04:20;16.73;;;15.43;;
21899;SDS011;11114;50.658;12.704;2022-08-01T09:06:52;16.60;;;15.40;;
21899;SDS011;11114;50.658;12.704;2022-08-01T09:09:21;15.75;;;14.57;;
21899;SDS011;11114;50.658;12.704;2022-08-01T09:11:49;16.88;;;15.68;;
21899;SDS011;11114;50.658;12.704;2022-08-01T09:14:23;17.25;;;16.02;;
21899;SDS011;11114;50.658;12.704;2022-08-01T09:17:03;14.50;;;13.40;;
21899;SDS011;11114;50.658;12.704;2022-08-01T09:19:38;15.90;;;14.85;;
21899;SDS011;11114;50.658;12.704;2022-08-01T09:22:09;14.90;;;13.90;;
21899;SDS011;11114;50.658;12.704;2022-08-01T09:24:38;14.02;;;13.13;;
21899;SDS011;11114;50.658;12.704;2022-08-01T09:27:17;13.88;;;12.95;;
21899;SDS011;11114;50.658;12.704;2022-08-01T09:29:47;16.52;;;15.43;;
21899;SDS011;11114;50.658;12.704;2022-08-01T09:32:30;14.60;;;13.60;;
21899;SDS011;11114;50.658;12.704;2022-08-01T09:38:13;15.60;;;14.50;;
21899;SDS011;11114;50.658;12.704;2022-08-01T09:40:51;14.57;;;13.52;;
21899;SDS011;11114;50.658;12.704;2022-08-01T09:43:27;16.20;;;14.98;;
21899;SDS011;11114;50.658;12.704;2022-08-01T09:45:58;17.05;;;15.85;;
21899;SDS011;11114;50.658;12.704;2022-08-01T09:48:26;17.27;;;16.02;;
21899;SDS011;11114;50.658;12.704;2022-08-01T09:50:56;16.58;;;15.27;;
21899;SDS011;11114;50.658;12.704;2022-08-01T09:53:47;16.20;;;15.10;;
21899;SDS011;11114;50.658;12.704;2022-08-01T09:56:19;16.13;;;14.63;;
21899;SDS011;11114;50.658;12.704;2022-08-01T09:58:48;15.77;;;14.68;;
21899;SDS011;11114;50.658;12.704;2022-08-01T10:01:26;17.70;;;16.40;;
21899;SDS011;11114;50.658;12.704;2022-08-01T10:04:11;15.80;;;14.70;;
21899;SDS011;11114;50.658;12.704;2022-08-01T10:06:41;16.20;;;14.75;;
21899;SDS011;11114;50.658;12.704;2022-08-01T10:09:12;15.05;;;13.95;;
21899;SDS011;11114;50.658;12.704;2022-08-01T10:11:41;15.15;;;14.15;;
21899;SDS011;11114;50.658;12.704;2022-08-01T10:14:10;15.50;;;14.40;;
21899;SDS011;11114;50.658;12.704;2022-08-01T10:16:44;15.30;;;14.30;;
21899;SDS011;11114;50.658;12.704;2022-08-01T10:19:21;16.40;;;15.30;;
21899;SDS011;11114;50.658;12.704;2022-08-01T10:21:50;16.35;;;15.13;;
21899;SDS011;11114;50.658;12.704;2022-08-01T10:24:26;15.98;;;14.68;;
21899;SDS011;11114;50.658;12.704;2022-08-01T10:26:57;16.52;;;15.35;;
21899;SDS011;11114;50.658;12.704;2022-08-01T10:32:34;14.48;;;13.50;;
21899;SDS011;11114;50.658;12.704;2022-08-01T10:35:05;15.98;;;14.88;;
21899;SDS011;11114;50.658;12.704;2022-08-01T10:37:40;14.43;;;13.43;;
21899;SDS011;11114;50.658;12.704;2022-08-01T10:40:18;15.27;;;14.15;;
21899;SDS011;11114;50.658;12.704;2022-08-01T10:42:57;13.90;;;13.00;;
21899;SDS011;11114;50.658;12.704;2022-08-01T10:45:25;13.38;;;12.48;;
21899;SDS011;11114;50.658;12.704;2022-08-01T10:50:29;13.13;;;12.32;;
21899;SDS011;11114;50.658;12.704;2022-08-01T10:55:46;15.60;;;14.60;;
21899;SDS011;11114;50.658;12.704;2022-08-01T10:58:28;14.98;;;13.75;;
21899;SDS011;11114;50.658;12.704;2022-08-01T11:01:20;12.98;;;12.18;;
21899;SDS011;11114;50.658;12.704;2022-08-01T11:09:15;13.20;;;12.35;;
21899;SDS011;11114;50.658;12.704;2022-08-01T11:12:01;12.63;;;11.77;;
21899;SDS011;11114;50.658;12.704;2022-08-01T11:20:08;13.90;;;13.00;;
21899;SDS011;11114;50.658;12.704;2022-08-01T11:28:25;17.08;;;13.52;;
21899;SDS011;11114;50.658;12.704;2022-08-01T11:38:41;13.63;;;12.73;;
21899;SDS011;11114;50.658;12.704;2022-08-01T11:44:04;12.52;;;11.73;;
21899;SDS011;11114;50.658;12.704;2022-08-01T11:52:11;13.88;;;12.98;;
21899;SDS011;11114;50.658;12.704;2022-08-01T11:54:44;13.50;;;12.60;;
21899;SDS011;11114;50.658;12.704;2022-08-01T11:57:25;14.10;;;13.20;;
21899;SDS011;11114;50.658;12.704;2022-08-01T12:00:00;13.93;;;13.02;;
21899;SDS011;11114;50.658;12.704;2022-08-01T12:02:42;14.10;;;13.20;;
21899;SDS011;11114;50.658;12.704;2022-08-01T12:05:14;14.05;;;13.05;;
21899;SDS011;11114;50.658;12.704;2022-08-01T12:07:50;14.13;;;13.23;;
21899;SDS011;11114;50.658;12.704;2022-08-01T12:10:19;14.90;;;14.00;;
21899;SDS011;11114;50.658;12.704;2022-08-01T12:12:54;15.38;;;14.38;;
21899;SDS011;11114;50.658;12.704;2022-08-01T12:15:28;14.40;;;13.50;;
21899;SDS011;11114;50.658;12.704;2022-08-01T12:18:03;16.02;;;14.82;;
21899;SDS011;11114;50.658;12.704;2022-08-01T12:20:36;17.05;;;14.70;;
21899;SDS011;11114;50.658;12.704;2022-08-01T12:23:22;15.50;;;14.50;;
21899;SDS011;11114;50.658;12.704;2022-08-01T12:25:52;15.32;;;14.23;;
21899;SDS011;11114;50.658;12.704;2022-08-01T12:28:24;16.90;;;15.32;;
21899;SDS011;11114;50.658;12.704;2022-08-01T12:31:00;15.02;;;14.00;;
21899;SDS011;11114;50.658;12.704;2022-08-01T12:33:27;15.55;;;14.10;;
21899;SDS011;11114;50.658;12.704;2022-08-01T12:35:54;15.20;;;14.15;;
21899;SDS011;11114;50.658;12.704;2022-08-01T12:38:21;15.07;;;14.07;;
21899;SDS011;11114;50.658;12.704;2022-08-01T12:40:51;14.27;;;13.27;;
21899;SDS011;11114;50.658;12.704;2022-08-01T12:43:21;14.00;;;13.10;;
21899;SDS011;11114;50.658;12.704;2022-08-01T12:45:54;14.85;;;13.95;;
21899;SDS011;11114;50.658;12.704;2022-08-01T12:48:27;14.73;;;13.52;;
21899;SDS011;11114;50.658;12.704;2022-08-01T12:50:56;14.73;;;13.68;;
21899;SDS011;11114;50.658;12.704;2022-08-01T12:53:26;14.65;;;13.75;;
21899;SDS011;11114;50.658;12.704;2022-08-01T12:56:07;15.18;;;13.95;;
21899;SDS011;11114;50.658;12.704;2022-08-01T12:58:37;16.38;;;14.85;;
21899;SDS011;11114;50.658;12.704;2022-08-01T13:01:04;15.73;;;14.63;;
21899;SDS011;11114;50.658;12.704;2022-08-01T13:03:33;15.52;;;14.52;;
21899;SDS011;11114;50.658;12.704;2022-08-01T13:06:00;15.80;;;14.80;;
21899;SDS011;11114;50.658;12.704;2022-08-01T13:08:36;16.00;;;15.00;;
21899;SDS011;11114;50.658;12.704;2022-08-01T13:11:11;16.25;;;15.15;;
21899;SDS011;11114;50.658;12.704;2022-08-01T13:13:50;16.98;;;15.60;;
21899;SDS011;11114;50.658;12.704;2022-08-01T13:16:19;16.48;;;15.02;;
21899;SDS011;11114;50.658;12.704;2022-08-01T13:19:03;15.48;;;14.45;;
21899;SDS011;11114;50.658;12.704;2022-08-01T13:21:32;15.82;;;14.82;;
21899;SDS011;11114;50.658;12.704;2022-08-01T13:24:28;16.73;;;15.40;;
21899;SDS011;11114;50.658;12.704;2022-08-01T13:26:59;15.57;;;14.57;;
21899;SDS011;11114;50.658;12.704;2022-08-01T13:32:15;15.30;;;14.20;;
21899;SDS011;11114;50.658;12.704;2022-08-01T13:35:01;16.10;;;15.10;;
21899;SDS011;11114;50.658;12.704;2022-08-01T13:37:34;17.65;;;16.25;;
21899;SDS011;11114;50.658;12.704;2022-08-01T13:40:04;13.30;;;12.40;;
21899;SDS011;11114;50.658;12.704;2022-08-01T13:42:32;14.38;;;13.38;;
21899;SDS011;11114;50.658;12.704;2022-08-01T13:44:59;18.05;;;16.75;;
21899;SDS011;11114;50.658;12.704;2022-08-01T13:47:26;16.60;;;15.60;;
21899;SDS011;11114;50.658;12.704;2022-08-01T13:49:58;15.45;;;14.45;;
21899;SDS011;11114;50.658;12.704;2022-08-01T13:52:28;14.48;;;13.48;;
21899;SDS011;11114;50.658;12.704;2022-08-01T13:54:55;15.70;;;14.70;;
21899;SDS011;11114;50.658;12.704;2022-08-01T13:57:22;15.20;;;14.30;;
21899;SDS011;11114;50.658;12.704;2022-08-01T13:59:49;15.70;;;14.70;;
21899;SDS011;11114;50.658;12.704;2022-08-01T14:02:15;15.20;;;14.30;;
21899;SDS011;11114;50.658;12.704;2022-08-01T14:04:42;15.93;;;14.93;;
21899;SDS011;11114;50.658;12.704;2022-08-01T14:07:09;14.95;;;13.77;;
21899;SDS011;11114;50.658;12.704;2022-08-01T14:09:40;15.73;;;14.73;;
21899;SDS011;11114;50.658;12.704;2022-08-01T14:12:27;15.90;;;14.90;;
21899;SDS011;11114;50.658;12.704;2022-08-01T14:14:54;14.43;;;13.50;;
21899;SDS011;11114;50.658;12.704;2022-08-01T14:17:20;16.20;;;15.20;;
21899;SDS011;11114;50.658;12.704;2022-08-01T14:19:48;16.15;;;15.15;;
21899;SDS011;11114;50.658;12.704;2022-08-01T14:22:14;14.05;;;13.15;;
21899;SDS011;11114;50.658;12.704;2022-08-01T14:24:41;13.77;;;12.88;;
21899;SDS011;11114;50.658;12.704;2022-08-01T14:27:09;13.77;;;12.82;;
21899;SDS011;11114;50.658;12.704;2022-08-01T14:29:36;14.00;;;13.10;;
21899;SDS011;11114;50.658;12.704;2022-08-01T14:32:23;11.57;;;10.88;;
21899;SDS011;11114;50.658;12.704;2022-08-01T14:34:54;13.80;;;12.77;;
21899;SDS011;11114;50.658;12.704;2022-08-01T14:37:22;14.50;;;13.32;;
21899;SDS011;11114;50.658;12.704;2022-08-01T14:39:55;14.00;;;13.00;;
21899;SDS011;11114;50.658;12.704;2022-08-01T14:42:24;13.52;;;12.63;;
21899;SDS011;11114;50.658;12.704;2022-08-01T14:44:51;12.90;;;12.10;;
21899;SDS011;11114;50.658;12.704;2022-08-01T14:47:18;12.73;;;11.93;;
21899;SDS011;11114;50.658;12.704;2022-08-01T14:49:48;12.57;;;11.77;;
21899;SDS011;11114;50.658;12.704;2022-08-01T14:52:15;13.63;;;12.63;;
21899;SDS011;11114;50.658;12.704;2022-08-01T14:54:42;13.38;;;12.48;;
21899;SDS011;11114;50.658;12.704;2022-08-01T14:57:09;13.18;;;12.38;;
21899;SDS011;11114;50.658;12.704;2022-08-01T14:59:36;13.40;;;12.50;;
21899;SDS011;11114;50.658;12.704;2022-08-01T15:02:02;13.10;;;12.30;;
21899;SDS011;11114;50.658;12.704;2022-08-01T15:04:30;13.38;;;12.50;;
21899;SDS011;11114;50.658;12.704;2022-08-01T15:06:57;12.80;;;12.00;;
21899;SDS011;11114;50.658;12.704;2022-08-01T15:09:23;12.90;;;12.10;;
21899;SDS011;11114;50.658;12.704;2022-08-01T15:11:50;13.38;;;12.48;;
21899;SDS011;11114;50.658;12.704;2022-08-01T15:14:17;13.65;;;12.75;;
21899;SDS011;11114;50.658;12.704;2022-08-01T15:17:02;13.43;;;12.52;;
21899;SDS011;11114;50.658;12.704;2022-08-01T15:19:29;12.98;;;12.18;;
21899;SDS011;11114;50.658;12.704;2022-08-01T15:21:56;13.35;;;12.45;;
21899;SDS011;11114;50.658;12.704;2022-08-01T15:24:26;13.23;;;12.32;;
21899;SDS011;11114;50.658;12.704;2022-08-01T15:26:53;13.40;;;12.45;;
21899;SDS011;11114;50.658;12.704;2022-08-01T15:29:21;14.13;;;13.23;;
21899;SDS011;11114;50.658;12.704;2022-08-01T15:31:47;13.10;;;12.10;;
21899;SDS011;11114;50.658;12.704;2022-08-01T15:34:14;12.93;;;12.13;;